createdAt,value
2022-07-31T00:02:34.538Z,100084.47
2022-07-31T00:05:23.211Z,100082.34
2022-07-31T00:08:11.693Z,100076.66
2022-07-31T00:11:00.335Z,100078.91
2022-07-31T00:13:56.435Z,100083.78
2022-07-31T00:16:48.065Z,100088.69
2022-07-31T00:19:37.266Z,100083.22
2022-07-31T00:22:25.743Z,100087.16
2022-07-31T00:25:15.374Z,100085.72
2022-07-31T00:28:03.920Z,100081.94
2022-07-31T00:30:52.506Z,100084.06
2022-07-31T00:33:42.626Z,100077.59
2022-07-31T00:36:31.146Z,100072.97
2022-07-31T00:39:21.288Z,100062.72
2022-07-31T00:42:18.296Z,100066.16
2022-07-31T00:45:08.503Z,100062.81
2022-07-31T00:47:57.742Z,100061.22
2022-07-31T00:50:47.596Z,100061.84
2022-07-31T00:53:36.218Z,100067.63
2022-07-31T00:56:25.150Z,100059.91
2022-07-31T00:59:13.947Z,100061.84
2022-07-31T01:02:02.403Z,100058.94
2022-07-31T01:04:51.034Z,100054.16
2022-07-31T01:07:40.840Z,100053.06
2022-07-31T01:10:44.583Z,100055.84
2022-07-31T01:13:36.599Z,100061.06
2022-07-31T01:16:26.534Z,100053.81
2022-07-31T01:19:24.240Z,100055.16
2022-07-31T01:22:53.746Z,100055.66
2022-07-31T01:25:54.147Z,100059.25
2022-07-31T01:29:02.091Z,100055.56
2022-07-31T01:31:55.045Z,100062.91
2022-07-31T01:34:47.121Z,100059.84
2022-07-31T01:37:40.615Z,100057.59
2022-07-31T01:40:33.584Z,100046.88
2022-07-31T01:43:25.786Z,100052.63
2022-07-31T01:46:16.984Z,100056.56
2022-07-31T01:49:05.621Z,100052.78
2022-07-31T01:51:54.962Z,100046.47
2022-07-31T01:54:54.310Z,100047.31
2022-07-31T01:57:43.011Z,100049.09
2022-07-31T02:00:34.465Z,100043.22
2022-07-31T02:03:44.297Z,100055.59
2022-07-31T02:06:34.631Z,100051.66
2022-07-31T02:09:23.508Z,100059.25
2022-07-31T02:12:12.321Z,100066.81
2022-07-31T02:15:01.038Z,100056.22
2022-07-31T02:17:49.840Z,100061.09
2022-07-31T02:20:45.485Z,100058.91
2022-07-31T02:23:34.332Z,100055.00
2022-07-31T02:26:22.851Z,100047.34
2022-07-31T02:29:20.077Z,100044.22
2022-07-31T02:32:09.633Z,100046.47
2022-07-31T02:34:58.267Z,100049.53
2022-07-31T02:37:49.670Z,100035.13
2022-07-31T02:40:38.472Z,100035.47
2022-07-31T02:43:29.712Z,100035.09
2022-07-31T02:46:19.825Z,100038.03
2022-07-31T02:49:08.473Z,100030.75
2022-07-31T02:51:57.369Z,100031.72
2022-07-31T02:54:48.544Z,100037.25
2022-07-31T02:57:37.187Z,100029.63
2022-07-31T03:00:30.824Z,100021.06
2022-07-31T03:03:19.955Z,100027.34
2022-07-31T03:06:08.595Z,100032.56
2022-07-31T03:08:59.690Z,100028.41
2022-07-31T03:11:49.657Z,100026.84
2022-07-31T03:14:38.253Z,100026.97
2022-07-31T03:17:38.034Z,100027.19
2022-07-31T03:20:27.555Z,100029.06
2022-07-31T03:23:16.041Z,100030.13
2022-07-31T03:26:16.047Z,100022.63
2022-07-31T03:29:06.037Z,100027.22
2022-07-31T03:32:14.767Z,100023.69
2022-07-31T03:35:03.460Z,100023.47
2022-07-31T03:37:52.118Z,100024.09
2022-07-31T03:40:40.647Z,100026.47
2022-07-31T03:43:30.121Z,100021.75
2022-07-31T03:46:34.454Z,100023.91
2022-07-31T03:49:23.114Z,100022.75
2022-07-31T03:52:12.802Z,100026.00
2022-07-31T03:55:01.590Z,100024.81
2022-07-31T03:57:50.246Z,100029.91
2022-07-31T04:00:38.938Z,100042.88
2022-07-31T04:03:31.869Z,100024.47
2022-07-31T04:06:40.737Z,100026.16
2022-07-31T04:09:29.692Z,100032.91
2022-07-31T04:12:19.035Z,100033.53
2022-07-31T04:15:08.685Z,100043.53
2022-07-31T04:17:58.344Z,100045.78
2022-07-31T04:20:54.569Z,100040.97
2022-07-31T04:23:49.564Z,100044.09
2022-07-31T04:26:57.829Z,100042.06
2022-07-31T04:29:53.549Z,100048.84
2022-07-31T04:32:42.229Z,100044.00
2022-07-31T04:35:36.222Z,100042.75
2022-07-31T04:38:26.105Z,100037.91
2022-07-31T04:41:14.669Z,100041.97
2022-07-31T04:44:03.158Z,100045.41
2022-07-31T04:47:06.403Z,100046.84
2022-07-31T04:49:57.448Z,100047.31
2022-07-31T04:52:48.661Z,100044.25
2022-07-31T04:55:38.609Z,100042.94
2022-07-31T04:58:27.714Z,100042.38
2022-07-31T05:01:16.394Z,100042.63
2022-07-31T05:04:05.536Z,100036.69
2022-07-31T05:06:54.725Z,100032.66
2022-07-31T05:09:44.009Z,100036.34
2022-07-31T05:12:33.920Z,100030.69
2022-07-31T05:15:22.397Z,100038.03
2022-07-31T05:18:12.836Z,100042.91
2022-07-31T05:21:32.847Z,100041.72
2022-07-31T05:24:44.339Z,100039.69
2022-07-31T05:27:38.935Z,100036.72
2022-07-31T05:30:30.489Z,100045.16
2022-07-31T05:33:19.563Z,100051.59
2022-07-31T05:36:08.795Z,100051.22
2022-07-31T05:38:57.332Z,100049.78
2022-07-31T05:41:54.623Z,100047.41
2022-07-31T05:44:59.087Z,100047.84
2022-07-31T05:47:47.728Z,100053.91
2022-07-31T05:50:36.502Z,100056.03
2022-07-31T05:53:25.343Z,100053.28
2022-07-31T05:56:52.447Z,100044.47
2022-07-31T05:59:47.094Z,100055.56
2022-07-31T06:02:37.069Z,100049.72
2022-07-31T06:05:38.717Z,100044.69
2022-07-31T06:08:27.251Z,100045.72
2022-07-31T06:11:18.246Z,100044.25
2022-07-31T06:14:06.787Z,100034.09
2022-07-31T06:17:15.303Z,100045.84
2022-07-31T06:20:05.997Z,100044.53
2022-07-31T06:22:55.155Z,100047.47
2022-07-31T06:25:45.864Z,100050.44
2022-07-31T06:28:47.579Z,100044.69
2022-07-31T06:31:38.819Z,100045.94
2022-07-31T06:34:27.366Z,100047.81
2022-07-31T06:37:17.331Z,100043.47
2022-07-31T06:40:07.631Z,100043.78
2022-07-31T06:43:07.350Z,100056.41
2022-07-31T06:46:14.869Z,100053.00
2022-07-31T06:49:29.652Z,100055.09
2022-07-31T06:52:19.603Z,100062.03
2022-07-31T06:55:09.275Z,100067.34
2022-07-31T06:57:58.009Z,100062.03
2022-07-31T07:00:46.540Z,100055.84
2022-07-31T07:03:35.083Z,100071.09
2022-07-31T07:06:23.943Z,100061.59
2022-07-31T07:09:13.783Z,100053.75
2022-07-31T07:12:02.464Z,100051.28
2022-07-31T07:14:51.130Z,100050.44
2022-07-31T07:17:39.693Z,100050.72
2022-07-31T07:20:35.193Z,100051.53
2022-07-31T07:23:23.993Z,100048.75
2022-07-31T07:26:32.708Z,100054.56
2022-07-31T07:29:24.399Z,100044.03
2022-07-31T07:32:14.721Z,100034.97
2022-07-31T07:35:04.624Z,100037.28
2022-07-31T07:38:09.321Z,100038.59
2022-07-31T07:40:58.626Z,100029.44
2022-07-31T07:43:48.706Z,100029.84
2022-07-31T07:46:41.922Z,100035.94
2022-07-31T07:49:35.990Z,100017.47
2022-07-31T07:53:01.268Z,100026.09
2022-07-31T07:56:12.383Z,100022.72
2022-07-31T07:59:28.244Z,100025.97
2022-07-31T08:03:47.344Z,100024.41
2022-07-31T08:06:01.595Z,100023.66
2022-07-31T08:08:50.179Z,100027.66
2022-07-31T08:11:57.518Z,100020.00
2022-07-31T08:15:07.926Z,100016.81
2022-07-31T08:18:14.685Z,100009.63
2022-07-31T08:21:03.206Z,100009.38
2022-07-31T08:23:52.694Z,99998.03
2022-07-31T08:26:59.673Z,99995.44
2022-07-31T08:29:49.847Z,100002.91
2022-07-31T08:32:42.096Z,99993.94
2022-07-31T08:35:38.130Z,99994.91
2022-07-31T08:38:28.686Z,99987.84
2022-07-31T08:41:55.189Z,99986.06
2022-07-31T08:44:45.315Z,99990.66
2022-07-31T08:47:37.158Z,99987.47
2022-07-31T08:50:32.893Z,99984.69
2022-07-31T08:53:23.591Z,99986.09
2022-07-31T08:56:18.899Z,99983.13
2022-07-31T08:59:08.140Z,99983.03
2022-07-31T09:01:58.453Z,99977.28
2022-07-31T09:04:52.329Z,99980.72
2022-07-31T09:07:43.925Z,99988.22
2022-07-31T09:10:32.543Z,99985.91
2022-07-31T09:13:21.078Z,99986.19
2022-07-31T09:16:12.550Z,99984.41
2022-07-31T09:19:03.844Z,99983.94
2022-07-31T09:22:22.275Z,99976.81
2022-07-31T09:25:16.369Z,99975.69
2022-07-31T09:28:06.445Z,99972.72
2022-07-31T09:30:57.151Z,99972.06
2022-07-31T09:33:58.145Z,99972.06
2022-07-31T09:36:55.618Z,99961.81
2022-07-31T09:40:21.291Z,99960.41
2022-07-31T09:43:51.580Z,99964.41
2022-07-31T09:46:40.966Z,99955.34
2022-07-31T09:49:33.722Z,99949.31
2022-07-31T09:52:22.405Z,99951.53
2022-07-31T09:55:16.313Z,99955.16
2022-07-31T09:58:08.381Z,99946.19
2022-07-31T10:01:02.574Z,99947.78
2022-07-31T10:03:52.665Z,99945.31
2022-07-31T10:06:41.258Z,99937.22
2022-07-31T10:09:30.215Z,99941.84
2022-07-31T10:12:30.345Z,99941.56
2022-07-31T10:15:21.164Z,99935.34
2022-07-31T10:18:35.801Z,99932.13
2022-07-31T10:22:02.420Z,99924.78
2022-07-31T10:24:54.235Z,99922.28
2022-07-31T10:27:42.929Z,99918.59
2022-07-31T10:30:35.836Z,99914.56
2022-07-31T10:33:45.358Z,99908.88
2022-07-31T10:36:52.576Z,99911.81
2022-07-31T10:39:57.705Z,99909.97
2022-07-31T10:43:01.733Z,99909.22
2022-07-31T10:45:55.026Z,99906.38
2022-07-31T10:49:08.562Z,99903.19
2022-07-31T10:52:16.318Z,99900.31
2022-07-31T10:55:27.058Z,99879.53
2022-07-31T10:58:35.854Z,99871.69
2022-07-31T11:01:53.045Z,99864.00
2022-07-31T11:05:13.219Z,99859.53
2022-07-31T11:08:24.855Z,99851.31
2022-07-31T11:11:25.934Z,99847.63
2022-07-31T11:14:34.462Z,99852.59
2022-07-31T11:18:20.188Z,99850.34
2022-07-31T11:21:22.723Z,99852.22
2022-07-31T11:24:16.521Z,99848.50
2022-07-31T11:27:05.670Z,99844.38
2022-07-31T11:30:01.945Z,99838.63
2022-07-31T11:32:54.210Z,99831.66
2022-07-31T11:35:42.823Z,99825.47
2022-07-31T11:38:31.597Z,99839.84
2022-07-31T11:41:22.845Z,99831.22
2022-07-31T11:44:11.885Z,99839.00
2022-07-31T11:47:00.462Z,99832.03
2022-07-31T11:49:50.424Z,99835.13
2022-07-31T11:52:43.345Z,99822.59
2022-07-31T11:55:32.118Z,99825.88
2022-07-31T11:58:22.732Z,99813.56
2022-07-31T12:01:11.278Z,99811.72
2022-07-31T12:04:08.343Z,99807.41
2022-07-31T12:06:59.353Z,99800.84
2022-07-31T12:10:02.709Z,99808.44
2022-07-31T12:12:51.809Z,99797.34
2022-07-31T12:15:40.246Z,99790.97
2022-07-31T12:18:30.707Z,99799.19
2022-07-31T12:21:19.769Z,99791.38
2022-07-31T12:24:13.423Z,99776.97
2022-07-31T12:27:02.915Z,99786.84
2022-07-31T12:29:51.553Z,99782.75
2022-07-31T12:32:40.059Z,99781.69
2022-07-31T12:35:55.694Z,99767.09
2022-07-31T12:38:48.155Z,99759.53
2022-07-31T12:41:44.070Z,99761.78
2022-07-31T12:44:32.607Z,99752.94
2022-07-31T12:47:22.358Z,99746.59
2022-07-31T12:50:14.908Z,99737.28
2022-07-31T12:53:04.677Z,99734.41
2022-07-31T12:55:53.200Z,99735.25
2022-07-31T12:58:43.035Z,99723.63
2022-07-31T13:01:31.669Z,99721.72
2022-07-31T13:04:20.151Z,99729.66
2022-07-31T13:07:09.554Z,99734.25
2022-07-31T13:10:17.557Z,99728.97
2022-07-31T13:13:06.581Z,99723.31
2022-07-31T13:15:56.485Z,99719.19
2022-07-31T13:18:45.276Z,99719.28
2022-07-31T13:21:42.491Z,99700.72
2022-07-31T13:24:38.199Z,99703.13
2022-07-31T13:27:26.718Z,99694.22
2022-07-31T13:30:15.366Z,99675.59
2022-07-31T13:33:05.380Z,99665.72
2022-07-31T13:35:54.069Z,99660.47
2022-07-31T13:38:42.565Z,99664.47
2022-07-31T13:41:34.150Z,99664.53
2022-07-31T13:44:22.636Z,99653.84
2022-07-31T13:47:11.219Z,99657.78
2022-07-31T13:50:01.118Z,99652.97
2022-07-31T13:52:49.628Z,99643.66
2022-07-31T13:55:38.359Z,99633.16
2022-07-31T13:58:28.142Z,99643.59
2022-07-31T14:01:16.745Z,99643.59
2022-07-31T14:04:06.067Z,99634.53
2022-07-31T14:06:55.946Z,99639.78
2022-07-31T14:09:55.023Z,99638.03
2022-07-31T14:12:43.872Z,99634.13
2022-07-31T14:15:32.419Z,99615.88
2022-07-31T14:18:22.297Z,99622.31
2022-07-31T14:21:10.840Z,99621.91
2022-07-31T14:24:00.706Z,99613.75
2022-07-31T14:26:49.227Z,99602.28
2022-07-31T14:29:37.850Z,99615.19
2022-07-31T14:32:26.384Z,99610.84
2022-07-31T14:35:14.856Z,99619.81
2022-07-31T14:38:04.417Z,99620.16
2022-07-31T14:40:54.422Z,99613.69
2022-07-31T14:43:42.912Z,99608.56
2022-07-31T14:46:31.402Z,99608.53
2022-07-31T14:49:20.098Z,99615.91
2022-07-31T14:52:08.776Z,99608.84
2022-07-31T14:54:58.709Z,99614.84
2022-07-31T14:57:48.573Z,99600.16
2022-07-31T15:00:37.124Z,99605.69
2022-07-31T15:03:25.693Z,99599.72
2022-07-31T15:06:40.036Z,99609.28
2022-07-31T15:09:25.596Z,99596.94
2022-07-31T15:12:16.759Z,99592.03
2022-07-31T15:15:08.260Z,99591.75
2022-07-31T15:17:56.826Z,99596.78
2022-07-31T15:20:45.350Z,99593.78
2022-07-31T15:23:35.816Z,99589.63
2022-07-31T15:26:24.556Z,99591.22
2022-07-31T15:29:13.027Z,99588.81
2022-07-31T15:32:02.828Z,99596.56
2022-07-31T15:34:51.434Z,99585.69
2022-07-31T15:37:40.754Z,99585.25
2022-07-31T15:40:29.229Z,99575.59
2022-07-31T15:43:17.760Z,99575.47
2022-07-31T15:46:07.715Z,99569.41
2022-07-31T15:48:57.583Z,99579.69
2022-07-31T15:51:46.118Z,99582.53
2022-07-31T15:54:34.594Z,99571.81
2022-07-31T15:57:23.122Z,99570.47
2022-07-31T16:00:14.069Z,99557.97
2022-07-31T16:03:04.566Z,99564.53
2022-07-31T16:05:56.273Z,99551.44
2022-07-31T16:08:44.994Z,99566.19
2022-07-31T16:12:04.230Z,99557.75
2022-07-31T16:14:41.985Z,99558.63
2022-07-31T16:17:37.827Z,99555.44
2022-07-31T16:20:27.149Z,99562.97
2022-07-31T16:23:17.183Z,99550.16
2022-07-31T16:26:05.772Z,99545.66
2022-07-31T16:28:54.444Z,99545.91
2022-07-31T16:31:42.967Z,99550.66
2022-07-31T16:34:31.496Z,99548.19
2022-07-31T16:37:20.001Z,99539.78
2022-07-31T16:40:32.180Z,99545.56
2022-07-31T16:43:49.334Z,99535.69
2022-07-31T16:46:29.173Z,99538.63
2022-07-31T16:49:35.212Z,99535.44
2022-07-31T16:52:26.180Z,99546.25
2022-07-31T16:55:14.716Z,99538.91
2022-07-31T16:58:04.605Z,99538.72
2022-07-31T17:00:53.202Z,99539.31
2022-07-31T17:04:01.196Z,99542.59
2022-07-31T17:06:50.459Z,99542.59
2022-07-31T17:09:38.954Z,99548.75
2022-07-31T17:12:27.572Z,99549.59
2022-07-31T17:15:17.485Z,99548.81
2022-07-31T17:18:06.139Z,99553.78
2022-07-31T17:20:55.997Z,99549.72
2022-07-31T17:23:50.984Z,99546.50
2022-07-31T17:26:39.772Z,99544.09
2022-07-31T17:29:28.205Z,99550.47
2022-07-31T17:32:18.144Z,99540.81
2022-07-31T17:35:08.226Z,99546.38
2022-07-31T17:38:02.158Z,99545.78
2022-07-31T17:40:51.161Z,99545.78
2022-07-31T17:43:50.131Z,99551.97
2022-07-31T17:46:48.036Z,99554.84
2022-07-31T17:49:38.767Z,99556.31
2022-07-31T17:52:27.470Z,99559.41
2022-07-31T17:55:15.944Z,99563.13
2022-07-31T17:58:04.403Z,99563.94
2022-07-31T18:00:53.898Z,99559.84
2022-07-31T18:03:42.414Z,99560.03
2022-07-31T18:06:32.293Z,99571.53
2022-07-31T18:09:23.197Z,99574.19
2022-07-31T18:12:15.412Z,99561.09
2022-07-31T18:15:05.122Z,99578.28
2022-07-31T18:17:54.322Z,99582.78
2022-07-31T18:20:45.134Z,99588.09
2022-07-31T18:23:34.950Z,99589.94
2022-07-31T18:26:23.523Z,99587.25
2022-07-31T18:29:12.059Z,99585.81
2022-07-31T18:32:00.532Z,99594.19
2022-07-31T18:34:49.071Z,99598.22
2022-07-31T18:37:37.680Z,99601.88
2022-07-31T18:40:27.569Z,99596.75
2022-07-31T18:43:16.108Z,99606.75
2022-07-31T18:46:04.858Z,99607.09
2022-07-31T18:48:55.909Z,99600.28
2022-07-31T18:51:45.368Z,99614.97
2022-07-31T18:54:34.113Z,99610.25
2022-07-31T18:57:24.184Z,99609.22
2022-07-31T19:00:13.543Z,99617.34
2022-07-31T19:03:02.035Z,99615.00
2022-07-31T19:05:52.721Z,99612.00
2022-07-31T19:08:41.225Z,99617.53
2022-07-31T19:11:29.771Z,99629.81
2022-07-31T19:14:21.721Z,99627.34
2022-07-31T19:17:10.255Z,99636.09
2022-07-31T19:20:01.421Z,99639.38
2022-07-31T19:22:50.919Z,99639.09
2022-07-31T19:26:02.806Z,99641.09
2022-07-31T19:28:48.095Z,99636.53
2022-07-31T19:31:38.500Z,99643.00
2022-07-31T19:34:27.034Z,99648.47
2022-07-31T19:37:17.529Z,99651.63
2022-07-31T19:40:09.060Z,99658.66
2022-07-31T19:42:59.572Z,99664.53
2022-07-31T19:45:58.816Z,99667.78
2022-07-31T19:48:58.199Z,99667.03
2022-07-31T19:51:46.863Z,99661.13
2022-07-31T19:54:35.358Z,99667.91
2022-07-31T19:57:24.063Z,99668.94
2022-07-31T20:00:13.856Z,99674.81
2022-07-31T20:03:02.401Z,99670.69
2022-07-31T20:05:52.404Z,99682.31
2022-07-31T20:08:40.939Z,99682.84
2022-07-31T20:11:29.562Z,99690.63
2022-07-31T20:14:17.987Z,99691.25
2022-07-31T20:17:06.595Z,99695.56
2022-07-31T20:20:14.901Z,99694.22
2022-07-31T20:23:05.171Z,99694.56
2022-07-31T20:25:53.837Z,99698.22
2022-07-31T20:28:43.972Z,99698.19
2022-07-31T20:31:33.085Z,99700.19
2022-07-31T20:34:22.439Z,99696.84
2022-07-31T20:37:10.944Z,99701.41
2022-07-31T20:40:00.858Z,99697.28
2022-07-31T20:42:49.813Z,99699.38
2022-07-31T20:45:41.553Z,99701.34
2022-07-31T20:48:32.454Z,99703.47
2022-07-31T20:51:23.231Z,99696.66
2022-07-31T20:54:11.760Z,99699.91
2022-07-31T20:57:01.593Z,99703.13
2022-07-31T20:59:50.182Z,99705.84
2022-07-31T21:02:38.697Z,99701.19
2022-07-31T21:05:29.575Z,99708.25
2022-07-31T21:08:18.267Z,99710.16
2022-07-31T21:11:06.785Z,99711.91
2022-07-31T21:13:56.686Z,99711.16
2022-07-31T21:16:45.209Z,99716.38
2022-07-31T21:19:33.656Z,99715.16
2022-07-31T21:22:22.218Z,99720.06
2022-07-31T21:25:11.832Z,99714.25
2022-07-31T21:28:00.709Z,99720.16
2022-07-31T21:30:51.053Z,99731.88
2022-07-31T21:33:40.396Z,99733.47
2022-07-31T21:36:28.982Z,99734.53
2022-07-31T21:39:19.585Z,99733.97
2022-07-31T21:42:09.619Z,99739.56
2022-07-31T21:44:58.922Z,99738.06
2022-07-31T21:47:52.749Z,99740.41
2022-07-31T21:50:43.362Z,99758.03
2022-07-31T21:53:31.788Z,99754.53
2022-07-31T21:56:20.256Z,99754.84
2022-07-31T21:59:08.724Z,99756.94
2022-07-31T22:02:08.290Z,99752.72
2022-07-31T22:05:15.629Z,99761.88
2022-07-31T22:08:04.335Z,99769.22
2022-07-31T22:10:53.187Z,99767.34
2022-07-31T22:13:41.702Z,99775.50
2022-07-31T22:16:30.698Z,99772.19
2022-07-31T22:19:19.809Z,99770.53
2022-07-31T22:22:11.115Z,99772.34
2022-07-31T22:25:00.207Z,99768.22
2022-07-31T22:27:56.375Z,99772.25
2022-07-31T22:30:45.676Z,99775.31
2022-07-31T22:33:34.442Z,99775.59
2022-07-31T22:36:22.989Z,99776.56
2022-07-31T22:39:12.908Z,99780.44
2022-07-31T22:42:01.998Z,99772.56
2022-07-31T22:44:50.942Z,99779.38
2022-07-31T22:47:39.815Z,99793.91
2022-07-31T22:50:28.727Z,99793.50
2022-07-31T22:53:17.715Z,99789.25
2022-07-31T22:56:07.616Z,99791.19
2022-07-31T22:58:56.947Z,99791.31
2022-07-31T23:01:45.443Z,99803.88
2022-07-31T23:04:34.054Z,99798.94
2022-07-31T23:07:22.556Z,99806.13
2022-07-31T23:10:12.695Z,99813.31
2022-07-31T23:13:02.611Z,99817.75
2022-07-31T23:15:51.171Z,99809.31
2022-07-31T23:18:39.661Z,99822.72
2022-07-31T23:21:28.270Z,99826.59
2022-07-31T23:24:16.953Z,99826.03
2022-07-31T23:27:08.315Z,99824.69
2022-07-31T23:29:58.706Z,99824.13
2022-07-31T23:32:47.211Z,99833.53
2022-07-31T23:35:35.648Z,99827.97
2022-07-31T23:38:24.109Z,99829.63
2022-07-31T23:41:12.720Z,99832.09
2022-07-31T23:44:00.231Z,99832.91
2022-07-31T23:46:50.028Z,99833.44
2022-07-31T23:49:38.577Z,99833.84
2022-07-31T23:52:27.071Z,99826.38
2022-07-31T23:55:15.489Z,99823.34
2022-07-31T23:58:04.085Z,99823.22
